createdAt,value
2017-07-30T00:00:32.776Z,93.90
2017-07-30T00:03:00.449Z,94.20
2017-07-30T00:05:28.079Z,94.60
2017-07-30T00:07:55.735Z,94.80
2017-07-30T00:10:23.382Z,94.60
2017-07-30T00:12:51.045Z,94.80
2017-07-30T00:15:18.722Z,94.70
2017-07-30T00:17:46.361Z,94.70
2017-07-30T00:20:14.788Z,95.30
2017-07-30T00:22:42.423Z,95.30
2017-07-30T00:25:10.062Z,95.60
2017-07-30T00:27:37.717Z,96.30
2017-07-30T00:30:05.335Z,96.20
2017-07-30T00:32:33.020Z,95.40
2017-07-30T00:35:00.660Z,95.90
2017-07-30T00:37:28.301Z,96.10
2017-07-30T00:39:55.966Z,95.20
2017-07-30T00:42:23.613Z,96.10
2017-07-30T00:44:51.280Z,95.80
2017-07-30T00:47:19.682Z,95.40
2017-07-30T00:49:47.326Z,95.40
2017-07-30T00:52:15.001Z,96.00
2017-07-30T00:54:42.655Z,96.60
2017-07-30T00:57:10.341Z,96.90
2017-07-30T00:59:38.757Z,97.20
2017-07-30T01:02:06.389Z,97.20
2017-07-30T01:04:34.060Z,96.40
2017-07-30T01:07:01.713Z,96.10
2017-07-30T01:09:29.379Z,96.10
2017-07-30T01:11:57.014Z,95.30
2017-07-30T01:14:24.650Z,95.30
2017-07-30T01:16:52.330Z,95.80
2017-07-30T01:19:20.736Z,96.70
2017-07-30T01:21:48.418Z,96.60
2017-07-30T01:24:16.061Z,97.10
2017-07-30T01:26:43.706Z,97.00
2017-07-30T01:29:11.376Z,96.90
2017-07-30T01:31:39.781Z,96.60
2017-07-30T01:34:07.459Z,96.40
2017-07-30T01:36:35.090Z,97.00
2017-07-30T01:39:02.757Z,97.00
2017-07-30T01:41:30.433Z,97.70
2017-07-30T01:43:58.841Z,97.10
2017-07-30T01:46:26.510Z,97.10
2017-07-30T01:48:54.157Z,96.60
2017-07-30T01:51:21.809Z,96.10
2017-07-30T01:53:49.492Z,97.20
2017-07-30T01:56:17.905Z,97.40
2017-07-30T01:58:45.575Z,97.40
2017-07-30T02:01:13.226Z,97.60
2017-07-30T02:03:40.863Z,97.90
2017-07-30T02:06:08.535Z,98.20
2017-07-30T02:08:36.945Z,98.20
2017-07-30T02:11:04.615Z,98.20
2017-07-30T02:13:32.254Z,98.50
2017-07-30T02:15:59.890Z,98.50
2017-07-30T02:18:27.582Z,98.60
2017-07-30T02:20:55.989Z,98.70
2017-07-30T02:23:23.658Z,98.70
2017-07-30T02:25:51.302Z,98.60
2017-07-30T02:28:18.954Z,98.20
2017-07-30T02:30:46.615Z,97.30
2017-07-30T02:33:14.249Z,97.80
2017-07-30T02:35:41.919Z,98.00
2017-07-30T02:38:09.552Z,98.10
2017-07-30T02:40:37.192Z,98.00
2017-07-30T02:43:04.869Z,98.60
2017-07-30T02:45:33.263Z,99.10
2017-07-30T02:48:00.931Z,98.70
2017-07-30T02:50:28.572Z,98.70
2017-07-30T02:52:56.222Z,98.70
2017-07-30T02:55:23.883Z,98.70
2017-07-30T02:57:51.529Z,98.00
2017-07-30T03:00:19.192Z,98.10
2017-07-30T03:02:46.828Z,98.50
2017-07-30T03:05:14.455Z,98.90
2017-07-30T03:07:42.120Z,99.10
2017-07-30T03:10:09.746Z,99.90
2017-07-30T03:12:37.420Z,99.50
2017-07-30T03:15:05.057Z,99.40
2017-07-30T03:17:32.679Z,99.30
2017-07-30T03:20:00.347Z,99.20
2017-07-30T03:22:28.008Z,98.80
2017-07-30T03:24:55.671Z,98.70
2017-07-30T03:27:23.303Z,98.80
2017-07-30T03:29:50.941Z,98.80
2017-07-30T03:32:18.598Z,98.80
2017-07-30T03:34:46.228Z,98.70
2017-07-30T03:37:13.897Z,98.60
2017-07-30T03:39:41.526Z,98.50
2017-07-30T03:42:09.153Z,98.70
2017-07-30T03:44:36.814Z,99.10
2017-07-30T03:47:04.448Z,99.10
2017-07-30T03:49:32.136Z,98.10
2017-07-30T03:51:59.770Z,97.80
2017-07-30T03:54:27.399Z,97.80
2017-07-30T03:56:55.066Z,98.30
2017-07-30T03:59:22.701Z,98.90
2017-07-30T04:01:50.360Z,98.80
2017-07-30T04:04:17.986Z,98.60
2017-07-30T04:06:45.632Z,98.30
2017-07-30T04:09:13.292Z,98.30
2017-07-30T04:11:40.928Z,98.30
2017-07-30T04:14:08.582Z,98.50
2017-07-30T04:16:36.224Z,98.40
2017-07-30T04:19:03.842Z,98.30
2017-07-30T04:21:31.504Z,97.70
2017-07-30T04:23:59.134Z,97.90
2017-07-30T04:26:26.804Z,97.20
2017-07-30T04:28:54.427Z,97.30
2017-07-30T04:31:22.062Z,97.30
2017-07-30T04:33:49.728Z,97.30
2017-07-30T04:36:17.357Z,96.70
2017-07-30T04:38:45.026Z,97.00
2017-07-30T04:41:12.661Z,96.40
2017-07-30T04:43:40.288Z,96.40
2017-07-30T04:46:07.978Z,96.30
2017-07-30T04:48:35.613Z,95.50
2017-07-30T04:51:03.280Z,94.50
2017-07-30T04:53:30.908Z,93.10
2017-07-30T04:55:58.577Z,92.40
2017-07-30T04:58:26.235Z,92.00
2017-07-30T05:00:53.869Z,91.90
2017-07-30T05:03:21.504Z,90.50
2017-07-30T05:05:49.112Z,89.10
2017-07-30T05:08:16.770Z,90.00
2017-07-30T05:10:45.181Z,89.80
2017-07-30T05:13:12.793Z,89.60
2017-07-30T05:15:40.432Z,88.50
2017-07-30T05:18:08.039Z,88.30
2017-07-30T05:20:35.659Z,87.90
2017-07-30T05:23:03.300Z,88.10
2017-07-30T05:25:30.900Z,85.30
2017-07-30T05:27:59.308Z,82.80
2017-07-30T05:30:26.909Z,82.70
2017-07-30T05:32:55.299Z,80.00
2017-07-30T05:35:22.936Z,79.60
2017-07-30T05:37:50.556Z,79.10
2017-07-30T05:40:18.194Z,79.80
2017-07-30T05:42:45.816Z,76.30
2017-07-30T05:45:13.426Z,77.20
2017-07-30T05:47:41.071Z,75.50
2017-07-30T05:50:08.703Z,76.70
2017-07-30T05:52:37.114Z,78.00
2017-07-30T05:55:04.719Z,77.90
2017-07-30T05:57:33.080Z,63.30
2017-07-30T06:00:01.510Z,72.00
2017-07-30T06:02:29.129Z,72.00
2017-07-30T06:04:56.777Z,56.60
2017-07-30T06:07:24.385Z,53.00
2017-07-30T06:09:52.769Z,51.70
2017-07-30T06:12:20.399Z,51.50
2017-07-30T06:14:48.009Z,48.80
2017-07-30T06:17:15.648Z,37.00
2017-07-30T06:19:43.260Z,39.40
2017-07-30T06:22:10.873Z,35.50
2017-07-30T06:24:38.556Z,36.20
2017-07-30T06:27:06.172Z,34.10
2017-07-30T06:29:34.582Z,33.50
2017-07-30T06:32:02.191Z,33.40
2017-07-30T06:34:29.791Z,29.80
2017-07-30T06:36:57.432Z,28.30
2017-07-30T06:39:25.042Z,27.30
2017-07-30T06:41:52.700Z,24.70
2017-07-30T06:44:20.311Z,24.40
2017-07-30T06:46:48.739Z,21.00
2017-07-30T06:49:16.403Z,20.80
2017-07-30T06:51:44.020Z,21.00
2017-07-30T06:54:11.661Z,22.00
2017-07-30T06:56:39.255Z,21.50
2017-07-30T06:59:07.638Z,19.00
2017-07-30T07:01:35.358Z,19.00
2017-07-30T07:04:03.737Z,18.30
2017-07-30T07:06:31.373Z,18.20
2017-07-30T07:08:59.765Z,18.60
2017-07-30T07:11:27.380Z,18.30
2017-07-30T07:13:55.790Z,17.00
2017-07-30T07:16:23.392Z,17.40
2017-07-30T07:18:51.028Z,18.00
2017-07-30T07:21:19.126Z,18.20
2017-07-30T07:23:46.857Z,17.20
2017-07-30T07:26:15.411Z,17.30
2017-07-30T07:28:43.873Z,18.70
2017-07-30T07:31:11.535Z,18.50
2017-07-30T07:33:39.189Z,17.90
2017-07-30T07:36:06.791Z,18.60
2017-07-30T07:38:34.448Z,18.80
2017-07-30T07:41:02.103Z,17.70
2017-07-30T07:43:29.739Z,17.10
2017-07-30T07:45:57.343Z,17.60
2017-07-30T07:48:24.943Z,17.20
2017-07-30T07:50:52.647Z,17.60
2017-07-30T07:53:20.271Z,16.70
2017-07-30T07:55:47.922Z,19.30
2017-07-30T07:58:15.533Z,16.40
2017-07-30T08:00:43.938Z,17.50
2017-07-30T08:03:11.588Z,17.50
2017-07-30T08:05:39.201Z,15.90
2017-07-30T08:08:07.617Z,16.20
2017-07-30T08:10:36.123Z,16.20
2017-07-30T08:13:03.868Z,16.00
2017-07-30T08:15:32.288Z,15.90
2017-07-30T08:17:59.908Z,15.60
2017-07-30T08:20:27.585Z,16.50
2017-07-30T08:22:55.785Z,15.80
2017-07-30T08:25:23.439Z,15.80
2017-07-30T08:27:51.857Z,17.20
2017-07-30T08:30:19.465Z,17.20
2017-07-30T08:32:47.115Z,17.70
2017-07-30T08:35:14.736Z,16.00
2017-07-30T08:37:43.109Z,15.90
2017-07-30T08:40:10.763Z,15.90
2017-07-30T08:42:38.392Z,15.00
2017-07-30T08:45:06.035Z,15.60
2017-07-30T08:47:33.632Z,16.20
2017-07-30T08:50:01.746Z,15.20
2017-07-30T08:52:29.562Z,15.10
2017-07-30T08:54:57.216Z,14.70
2017-07-30T08:57:24.857Z,15.20
2017-07-30T08:59:52.464Z,14.70
2017-07-30T09:02:20.164Z,16.30
2017-07-30T09:04:47.800Z,13.70
2017-07-30T09:07:15.410Z,14.60
2017-07-30T09:09:43.062Z,14.00
2017-07-30T09:12:10.797Z,15.50
2017-07-30T09:14:39.922Z,14.00
2017-07-30T09:17:08.621Z,13.80
2017-07-30T09:19:36.997Z,15.10
2017-07-30T09:22:05.424Z,14.30
2017-07-30T09:24:33.203Z,14.30
2017-07-30T09:27:00.937Z,16.00
2017-07-30T09:29:28.627Z,14.40
2017-07-30T09:31:56.261Z,13.10
2017-07-30T09:34:23.916Z,12.60
2017-07-30T09:36:51.542Z,12.40
2017-07-30T09:39:19.191Z,14.20
2017-07-30T09:41:47.606Z,13.30
2017-07-30T09:44:15.209Z,13.20
2017-07-30T09:46:42.872Z,13.00
2017-07-30T09:49:10.505Z,15.30
2017-07-30T09:51:38.122Z,14.50
2017-07-30T09:54:05.757Z,14.30
2017-07-30T09:56:33.378Z,13.00
2017-07-30T09:59:01.013Z,13.30
2017-07-30T10:01:28.680Z,14.40
2017-07-30T10:03:56.298Z,12.60
2017-07-30T10:06:23.931Z,13.30
2017-07-30T10:08:51.540Z,13.60
2017-07-30T10:11:19.176Z,14.50
2017-07-30T10:13:46.794Z,14.40
2017-07-30T10:16:14.406Z,13.10
2017-07-30T10:18:42.044Z,13.80
2017-07-30T10:21:10.433Z,12.80
2017-07-30T10:23:38.085Z,12.70
2017-07-30T10:26:05.684Z,11.90
2017-07-30T10:28:33.672Z,12.00
2017-07-30T10:31:01.466Z,12.20
2017-07-30T10:33:29.075Z,11.30
2017-07-30T10:35:56.711Z,11.10
2017-07-30T10:38:24.304Z,10.60
2017-07-30T10:40:51.929Z,11.60
2017-07-30T10:43:19.579Z,12.00
2017-07-30T10:45:47.190Z,13.20
2017-07-30T10:48:14.836Z,12.60
2017-07-30T10:50:42.481Z,14.50
2017-07-30T10:53:10.848Z,12.70
2017-07-30T10:55:38.482Z,12.70
2017-07-30T10:58:06.847Z,14.90
2017-07-30T11:00:35.637Z,14.40
2017-07-30T11:03:03.274Z,14.50
2017-07-30T11:05:35.446Z,14.40
2017-07-30T11:08:09.075Z,16.60
2017-07-30T11:10:36.687Z,16.00
2017-07-30T11:13:04.519Z,16.50
2017-07-30T11:15:32.516Z,14.90
2017-07-30T11:18:00.296Z,16.00
2017-07-30T11:20:28.805Z,14.00
2017-07-30T11:22:56.435Z,13.90
2017-07-30T11:25:24.072Z,15.70
2017-07-30T11:27:52.576Z,15.70
2017-07-30T11:30:20.185Z,15.60
2017-07-30T11:32:47.828Z,15.00
2017-07-30T11:35:16.199Z,14.90
2017-07-30T11:37:43.870Z,14.80
2017-07-30T11:40:11.479Z,15.90
2017-07-30T11:42:39.089Z,15.20
2017-07-30T11:45:06.734Z,16.60
2017-07-30T11:47:34.345Z,17.30
2017-07-30T11:50:01.980Z,17.90
2017-07-30T11:52:29.673Z,18.80
2017-07-30T11:54:57.302Z,19.70
2017-07-30T11:57:24.940Z,19.70
2017-07-30T11:59:52.562Z,20.40
2017-07-30T12:02:20.205Z,19.90
2017-07-30T12:04:47.800Z,20.70
2017-07-30T12:07:15.465Z,19.90
2017-07-30T12:09:43.111Z,20.20
2017-07-30T12:12:10.864Z,19.80
2017-07-30T12:14:39.338Z,21.50
2017-07-30T12:17:06.973Z,21.40
2017-07-30T12:19:34.568Z,20.90
2017-07-30T12:22:02.213Z,21.60
2017-07-30T12:24:29.828Z,21.50
2017-07-30T12:26:58.257Z,20.90
2017-07-30T12:29:25.846Z,21.50
2017-07-30T12:31:54.207Z,19.70
2017-07-30T12:34:22.621Z,19.70
2017-07-30T12:36:50.230Z,19.70
2017-07-30T12:39:17.870Z,20.30
2017-07-30T12:41:45.475Z,20.60
2017-07-30T12:44:13.093Z,20.20
2017-07-30T12:46:40.731Z,20.70
2017-07-30T12:49:08.348Z,21.10
2017-07-30T12:51:36.107Z,20.00
2017-07-30T12:54:03.779Z,21.10
2017-07-30T12:56:31.417Z,20.70
2017-07-30T12:58:59.076Z,19.70
2017-07-30T13:01:26.689Z,20.00
2017-07-30T13:03:55.106Z,19.40
2017-07-30T13:06:22.707Z,19.10
2017-07-30T13:08:50.515Z,19.60
2017-07-30T13:11:18.945Z,19.30
2017-07-30T13:13:46.563Z,19.30
2017-07-30T13:16:14.395Z,19.10
2017-07-30T13:18:42.774Z,19.00
2017-07-30T13:21:11.156Z,19.70
2017-07-30T13:23:38.957Z,19.70
2017-07-30T13:26:06.590Z,19.40
2017-07-30T13:28:34.223Z,20.20
2017-07-30T13:31:01.884Z,19.60
2017-07-30T13:33:29.669Z,19.20
2017-07-30T13:35:57.509Z,20.00
2017-07-30T13:38:25.348Z,20.40
2017-07-30T13:40:53.145Z,20.30
2017-07-30T13:43:20.811Z,20.80
2017-07-30T13:45:48.424Z,20.50
2017-07-30T13:48:16.603Z,19.80
2017-07-30T13:50:44.241Z,20.80
2017-07-30T13:53:11.890Z,19.90
2017-07-30T13:55:39.636Z,19.80
2017-07-30T13:58:07.244Z,19.50
2017-07-30T14:00:35.042Z,19.70
2017-07-30T14:03:02.681Z,19.10
2017-07-30T14:05:30.544Z,18.30
2017-07-30T14:07:58.161Z,18.50
2017-07-30T14:10:25.790Z,19.80
2017-07-30T14:12:53.430Z,20.20
2017-07-30T14:15:21.040Z,19.10
2017-07-30T14:17:48.734Z,18.40
2017-07-30T14:20:17.312Z,19.00
2017-07-30T14:22:45.689Z,18.70
2017-07-30T14:25:13.349Z,18.70
2017-07-30T14:27:40.958Z,18.60
2017-07-30T14:30:09.364Z,18.20
2017-07-30T14:32:36.975Z,18.30
2017-07-30T14:35:05.396Z,18.20
2017-07-30T14:37:33.335Z,18.20
2017-07-30T14:40:01.760Z,17.90
2017-07-30T14:42:29.472Z,17.80
2017-07-30T14:44:57.202Z,18.40
2017-07-30T14:47:24.818Z,19.20
2017-07-30T14:49:52.446Z,18.10
2017-07-30T14:52:20.830Z,18.70
2017-07-30T14:54:48.497Z,18.70
2017-07-30T14:57:16.105Z,16.40
2017-07-30T14:59:44.471Z,17.40
2017-07-30T15:02:12.890Z,16.00
2017-07-30T15:04:40.504Z,16.00
2017-07-30T15:07:08.152Z,15.30
2017-07-30T15:09:35.757Z,16.20
2017-07-30T15:12:03.359Z,16.70
2017-07-30T15:14:31.029Z,16.30
2017-07-30T15:16:58.642Z,18.00
2017-07-30T15:19:26.300Z,16.80
2017-07-30T15:21:53.918Z,15.60
2017-07-30T15:24:21.519Z,15.40
2017-07-30T15:26:49.158Z,15.30
2017-07-30T15:29:16.769Z,16.00
2017-07-30T15:31:44.397Z,16.00
2017-07-30T15:34:12.007Z,16.10
2017-07-30T15:36:39.625Z,17.00
2017-07-30T15:39:07.252Z,17.10
2017-07-30T15:41:34.869Z,16.90
2017-07-30T15:44:03.294Z,16.20
2017-07-30T15:46:30.900Z,16.20
2017-07-30T15:48:58.504Z,14.90
2017-07-30T15:51:26.162Z,15.70
2017-07-30T15:53:53.781Z,15.70
2017-07-30T15:56:23.308Z,15.00
2017-07-30T15:58:51.667Z,16.30
2017-07-30T16:01:20.064Z,16.10
2017-07-30T16:03:47.813Z,16.10
2017-07-30T16:06:15.425Z,16.80
2017-07-30T16:08:43.065Z,16.40
2017-07-30T16:11:10.674Z,17.30
2017-07-30T16:13:39.458Z,17.70
2017-07-30T16:16:08.821Z,16.60
2017-07-30T16:18:36.449Z,16.50
2017-07-30T16:21:04.080Z,17.60
2017-07-30T16:23:31.683Z,17.00
2017-07-30T16:25:59.294Z,17.00
2017-07-30T16:28:26.932Z,17.70
2017-07-30T16:30:54.563Z,18.00
2017-07-30T16:33:23.333Z,17.00
2017-07-30T16:35:51.070Z,16.60
2017-07-30T16:38:19.457Z,17.30
2017-07-30T16:40:47.464Z,17.10
2017-07-30T16:43:15.103Z,16.90
2017-07-30T16:45:42.775Z,16.90
2017-07-30T16:48:11.205Z,17.50
2017-07-30T16:50:38.823Z,17.50
2017-07-30T16:53:06.474Z,18.00
2017-07-30T16:55:34.116Z,18.30
2017-07-30T16:58:02.857Z,19.00
2017-07-30T17:00:30.565Z,17.50
2017-07-30T17:02:58.234Z,17.40
2017-07-30T17:05:25.881Z,18.60
2017-07-30T17:07:53.500Z,19.80
2017-07-30T17:10:21.142Z,20.80
2017-07-30T17:12:52.386Z,20.10
2017-07-30T17:15:20.726Z,18.60
2017-07-30T17:17:48.529Z,20.90
2017-07-30T17:20:16.289Z,21.00
2017-07-30T17:22:43.985Z,18.40
2017-07-30T17:25:11.733Z,19.60
2017-07-30T17:27:39.406Z,20.50
2017-07-30T17:30:07.776Z,19.80
2017-07-30T17:32:36.168Z,21.10
2017-07-30T17:35:03.830Z,21.00
2017-07-30T17:37:32.306Z,24.30
2017-07-30T17:40:00.031Z,23.60
2017-07-30T17:42:27.818Z,24.00
2017-07-30T17:44:55.473Z,24.90
2017-07-30T17:47:23.125Z,24.90
2017-07-30T17:49:50.725Z,25.60
2017-07-30T17:52:18.377Z,23.40
2017-07-30T17:54:46.069Z,21.20
2017-07-30T17:57:14.506Z,21.40
2017-07-30T17:59:42.188Z,21.40
2017-07-30T18:02:10.666Z,23.20
2017-07-30T18:04:38.381Z,23.70
2017-07-30T18:07:06.818Z,25.10
2017-07-30T18:09:34.464Z,25.10
2017-07-30T18:12:02.210Z,24.60
2017-07-30T18:14:30.005Z,26.10
2017-07-30T18:16:57.666Z,27.50
2017-07-30T18:19:25.320Z,28.70
2017-07-30T18:21:53.688Z,30.70
2017-07-30T18:24:21.369Z,30.00
2017-07-30T18:26:49.637Z,30.00
2017-07-30T18:29:17.294Z,24.70
2017-07-30T18:31:45.119Z,27.60
2017-07-30T18:34:12.847Z,27.70
2017-07-30T18:36:41.211Z,27.10
2017-07-30T18:39:08.829Z,24.30
2017-07-30T18:41:36.528Z,26.40
2017-07-30T18:44:04.812Z,28.00
2017-07-30T18:46:32.757Z,30.00
2017-07-30T18:49:00.539Z,33.50
2017-07-30T18:51:28.149Z,32.90
2017-07-30T18:53:55.864Z,34.10
2017-07-30T18:56:23.587Z,33.30
2017-07-30T18:58:52.011Z,35.40
2017-07-30T19:01:19.893Z,35.30
2017-07-30T19:03:47.522Z,35.20
2017-07-30T19:06:15.172Z,36.90
2017-07-30T19:08:42.810Z,37.10
2017-07-30T19:11:10.407Z,37.70
2017-07-30T19:13:38.054Z,39.50
2017-07-30T19:16:05.662Z,41.10
2017-07-30T19:18:33.313Z,42.00
2017-07-30T19:21:00.926Z,41.30
2017-07-30T19:23:28.541Z,43.60
2017-07-30T19:25:56.169Z,41.30
2017-07-30T19:28:24.528Z,43.00
2017-07-30T19:30:52.155Z,42.90
2017-07-30T19:33:19.791Z,43.50
2017-07-30T19:35:47.384Z,42.90
2017-07-30T19:38:15.013Z,45.40
2017-07-30T19:40:43.383Z,45.00
2017-07-30T19:43:11.797Z,45.10
2017-07-30T19:45:40.351Z,45.10
2017-07-30T19:48:07.960Z,44.90
2017-07-30T19:50:36.361Z,48.20
2017-07-30T19:53:03.973Z,48.20
2017-07-30T19:55:31.676Z,46.50
2017-07-30T19:58:00.109Z,45.90
2017-07-30T20:00:27.763Z,45.00
2017-07-30T20:02:55.406Z,46.00
2017-07-30T20:05:23.022Z,46.20
2017-07-30T20:07:51.427Z,44.50
2017-07-30T20:10:19.036Z,44.50
2017-07-30T20:12:47.214Z,45.60
2017-07-30T20:15:14.848Z,47.90
2017-07-30T20:17:42.462Z,47.60
2017-07-30T20:20:10.113Z,48.70
2017-07-30T20:22:38.754Z,50.90
2017-07-30T20:25:07.162Z,51.20
2017-07-30T20:27:34.809Z,50.50
2017-07-30T20:30:03.185Z,53.10
2017-07-30T20:32:30.852Z,53.10
2017-07-30T20:34:59.213Z,50.10
2017-07-30T20:37:26.836Z,53.10
2017-07-30T20:39:54.481Z,52.20
2017-07-30T20:42:22.856Z,51.40
2017-07-30T20:44:51.698Z,51.30
2017-07-30T20:47:19.365Z,54.60
2017-07-30T20:49:46.973Z,53.60
2017-07-30T20:52:14.616Z,52.70
2017-07-30T20:54:42.221Z,54.40
2017-07-30T20:57:10.808Z,52.40
2017-07-30T20:59:38.461Z,54.90
2017-07-30T21:02:06.055Z,53.70
2017-07-30T21:04:34.454Z,49.20
2017-07-30T21:07:03.361Z,49.10
2017-07-30T21:09:31.105Z,47.80
2017-07-30T21:11:58.758Z,51.70
2017-07-30T21:14:26.354Z,52.70
2017-07-30T21:16:54.257Z,54.00
2017-07-30T21:19:21.855Z,54.30
2017-07-30T21:21:49.525Z,57.30
2017-07-30T21:24:17.145Z,55.80
2017-07-30T21:26:45.857Z,58.10
2017-07-30T21:29:13.950Z,58.10
2017-07-30T21:31:41.575Z,60.50
2017-07-30T21:34:09.312Z,62.90
2017-07-30T21:36:36.936Z,62.70
2017-07-30T21:39:04.848Z,65.10
2017-07-30T21:41:33.643Z,66.40
2017-07-30T21:44:01.313Z,66.40
2017-07-30T21:46:28.947Z,66.50
2017-07-30T21:48:56.556Z,66.40
2017-07-30T21:51:24.930Z,66.70
2017-07-30T21:53:53.332Z,67.30
2017-07-30T21:56:20.953Z,67.20
2017-07-30T21:58:48.602Z,68.80
2017-07-30T22:01:17.735Z,69.50
2017-07-30T22:03:45.421Z,68.70
2017-07-30T22:06:13.828Z,68.60
2017-07-30T22:08:41.438Z,68.50
2017-07-30T22:11:09.084Z,67.70
2017-07-30T22:13:36.702Z,67.10
2017-07-30T22:16:04.315Z,69.10
2017-07-30T22:18:31.960Z,66.80
2017-07-30T22:20:59.611Z,67.70
2017-07-30T22:23:27.273Z,68.80
2017-07-30T22:25:54.880Z,70.90
2017-07-30T22:28:22.480Z,70.60
2017-07-30T22:30:50.134Z,71.80
2017-07-30T22:33:18.531Z,71.30
2017-07-30T22:35:46.164Z,71.30
2017-07-30T22:38:13.777Z,71.60
2017-07-30T22:40:41.405Z,71.90
2017-07-30T22:43:09.073Z,73.10
2017-07-30T22:45:36.677Z,74.50
2017-07-30T22:48:04.323Z,73.50
2017-07-30T22:50:31.916Z,74.50
2017-07-30T22:52:59.537Z,74.00
2017-07-30T22:55:27.167Z,73.40
2017-07-30T22:57:54.767Z,73.70
2017-07-30T23:00:23.173Z,73.70
2017-07-30T23:02:50.775Z,72.90
2017-07-30T23:05:18.381Z,73.80
2017-07-30T23:07:46.019Z,73.20
2017-07-30T23:10:13.624Z,73.70
2017-07-30T23:12:41.269Z,74.80
2017-07-30T23:15:08.878Z,75.70
2017-07-30T23:17:36.493Z,75.90
2017-07-30T23:20:04.153Z,76.30
2017-07-30T23:22:31.759Z,75.70
2017-07-30T23:24:59.441Z,74.70
2017-07-30T23:27:27.049Z,77.00
2017-07-30T23:29:54.664Z,76.80
2017-07-30T23:32:22.305Z,76.40
2017-07-30T23:34:49.924Z,76.50
2017-07-30T23:37:17.565Z,77.40
2017-07-30T23:39:45.160Z,77.40
2017-07-30T23:42:13.525Z,78.70
2017-07-30T23:44:41.937Z,77.70
2017-07-30T23:47:09.561Z,77.60
2017-07-30T23:49:37.202Z,77.50
2017-07-30T23:52:04.803Z,78.30
2017-07-30T23:54:32.410Z,78.70
2017-07-30T23:57:00.103Z,78.90
2017-07-30T23:59:27.729Z,78.10
